Time;durP1;ratioP1;P1;durP2;ratioP2;P2;SDS_P1;SDS_P2;PMS_P1;PMS_P2;Temp;Humidity;BMP_temperature;BMP_pressure;BME280_temperature;BME280_humidity;BME280_pressure;Samples;Min_cycle;Max_cycle;Signal;HPM_P1;HPM_P2
2022/06/02 00:00:47;;;;;;;9.93;7.32;;;;;;;;;;5009254;28;20042;-82
2022/06/02 00:03:13;;;;;;;10.98;7.60;;;;;;;;;;5006494;28;20034;-82
2022/06/02 00:05:50;;;;;;;9.27;7.20;;;;;;;;;;5010002;28;20061;-82
2022/06/02 00:08:31;;;;;;;8.95;7.15;;;;;;;;;;5009739;28;20456;-82
2022/06/02 00:10:57;;;;;;;10.10;7.43;;;;;;;;;;5010399;28;20053;-82
2022/06/02 00:13:42;;;;;;;8.50;6.47;;;;;;;;;;5008778;28;20042;-82
2022/06/02 00:16:30;;;;;;;8.43;6.20;;;;;;;;;;5008937;28;20062;-82
2022/06/02 00:19:02;;;;;;;6.53;5.63;;;;;;;;;;4990225;28;20043;-82
2022/06/02 00:21:31;;;;;;;9.73;7.20;;;;;;;;;;4997010;28;20027;-82
2022/06/02 00:24:18;;;;;;;8.35;6.90;;;;;;;;;;5009442;28;20086;-82
2022/06/02 00:26:51;;;;;;;9.95;6.63;;;;;;;;;;5012148;28;20034;-82
2022/06/02 00:29:55;;;;;;;10.02;6.85;;;;;;;;;;5011835;28;20011;-82
2022/06/02 00:32:31;;;;;;;8.25;5.88;;;;;;;;;;4970283;28;20158;-82
2022/06/02 00:35:26;;;;;;;8.25;6.15;;;;;;;;;;4970671;28;20031;-82
2022/06/02 00:37:56;;;;;;;8.35;5.82;;;;;;;;;;4953959;28;20048;-82
2022/06/02 00:40:23;;;;;;;8.63;5.68;;;;;;;;;;5011793;28;20077;-83
2022/06/02 00:43:00;;;;;;;8.40;6.65;;;;;;;;;;5010595;28;20049;-82
2022/06/02 00:45:26;;;;;;;8.32;6.22;;;;;;;;;;5010634;28;20043;-82
2022/06/02 00:47:55;;;;;;;8.05;6.28;;;;;;;;;;5008062;28;20090;-82
2022/06/02 00:50:30;;;;;;;6.95;5.65;;;;;;;;;;5011721;28;20011;-82
2022/06/02 00:53:06;;;;;;;6.40;5.50;;;;;;;;;;5010743;28;20086;-83
2022/06/02 00:58:31;;;;;;;9.07;6.05;;;;;;;;;;5011132;28;20066;-82
2022/06/02 01:01:18;;;;;;;7.13;5.70;;;;;;;;;;5011467;28;20053;-82
2022/06/02 01:03:47;;;;;;;7.60;5.85;;;;;;;;;;5010974;28;20023;-82
2022/06/02 01:06:23;;;;;;;7.53;5.57;;;;;;;;;;5012215;28;20033;-83
2022/06/02 01:09:01;;;;;;;8.48;5.63;;;;;;;;;;5011868;28;20022;-82
2022/06/02 01:11:27;;;;;;;7.45;5.90;;;;;;;;;;5010490;28;20098;-82
2022/06/02 01:14:08;;;;;;;8.15;5.75;;;;;;;;;;5011455;28;20026;-82
2022/06/02 01:16:46;;;;;;;7.20;5.75;;;;;;;;;;5012080;28;20031;-82
2022/06/02 01:19:15;;;;;;;7.93;5.85;;;;;;;;;;5010419;28;20038;-82
2022/06/02 01:21:59;;;;;;;7.68;5.63;;;;;;;;;;5011218;28;20034;-82
2022/06/02 01:24:25;;;;;;;7.60;5.57;;;;;;;;;;5010029;28;20042;-82
2022/06/02 01:27:27;;;;;;;7.88;5.68;;;;;;;;;;5010302;28;20032;-82
2022/06/02 01:29:55;;;;;;;7.78;5.60;;;;;;;;;;5009520;28;20026;-82
2022/06/02 01:32:30;;;;;;;9.18;6.30;;;;;;;;;;5008587;28;20046;-82
2022/06/02 01:35:09;;;;;;;8.35;6.18;;;;;;;;;;5011108;28;20115;-82
2022/06/02 01:37:50;;;;;;;9.48;6.93;;;;;;;;;;5011049;28;20034;-82
2022/06/02 01:40:27;;;;;;;8.77;6.82;;;;;;;;;;5009922;28;20030;-82
2022/06/02 01:42:56;;;;;;;8.65;6.63;;;;;;;;;;5011038;28;20018;-83
2022/06/02 01:45:24;;;;;;;8.50;6.55;;;;;;;;;;5011450;28;20029;-82
2022/06/02 01:48:01;;;;;;;8.40;6.25;;;;;;;;;;5011347;28;20015;-82
2022/06/02 01:50:46;;;;;;;8.40;6.70;;;;;;;;;;5011453;28;20025;-82
2022/06/02 01:53:18;;;;;;;8.85;6.32;;;;;;;;;;5009972;28;20022;-82
2022/06/02 01:55:53;;;;;;;8.35;6.50;;;;;;;;;;5009999;28;20034;-82
2022/06/02 01:58:38;;;;;;;9.90;6.72;;;;;;;;;;5010155;28;20058;-82
2022/06/02 02:01:10;;;;;;;8.23;6.18;;;;;;;;;;5010004;28;20038;-82
2022/06/02 02:03:50;;;;;;;8.75;6.43;;;;;;;;;;5010843;28;20026;-82
2022/06/02 02:06:25;;;;;;;8.75;6.90;;;;;;;;;;5009508;28;20030;-82
2022/06/02 02:09:09;;;;;;;8.95;6.82;;;;;;;;;;5008712;28;20023;-82
2022/06/02 02:11:35;;;;;;;11.02;6.60;;;;;;;;;;5010393;28;20041;-82
2022/06/02 02:14:10;;;;;;;8.25;6.55;;;;;;;;;;5001470;28;20019;-82
2022/06/02 02:16:39;;;;;;;9.63;7.60;;;;;;;;;;5000815;28;20041;-83
2022/06/02 02:19:05;;;;;;;12.32;7.72;;;;;;;;;;5010703;28;20036;-82
2022/06/02 02:21:50;;;;;;;9.45;7.70;;;;;;;;;;5010068;28;20026;-82
2022/06/02 02:24:28;;;;;;;9.55;7.30;;;;;;;;;;5009095;28;20041;-82
2022/06/02 02:27:05;;;;;;;9.65;7.78;;;;;;;;;;5004312;28;20034;-82
2022/06/02 02:29:33;;;;;;;10.30;8.05;;;;;;;;;;5010406;28;20057;-82
2022/06/02 02:32:05;;;;;;;9.68;7.05;;;;;;;;;;5010283;28;20026;-83
2022/06/02 02:34:31;;;;;;;8.87;6.87;;;;;;;;;;5010121;28;20027;-83
2022/06/02 02:37:02;;;;;;;8.85;7.18;;;;;;;;;;5009956;28;20038;-83
2022/06/02 02:39:47;;;;;;;11.05;7.38;;;;;;;;;;5010569;28;20038;-82
2022/06/02 02:42:16;;;;;;;9.98;7.20;;;;;;;;;;5009826;28;20041;-83
2022/06/02 02:44:51;;;;;;;9.85;7.78;;;;;;;;;;5010105;28;20125;-83
2022/06/02 02:47:17;;;;;;;9.05;7.50;;;;;;;;;;5007211;28;20030;-83
2022/06/02 02:49:50;;;;;;;9.57;7.85;;;;;;;;;;5009510;28;20103;-83
2022/06/02 02:52:28;;;;;;;8.70;7.00;;;;;;;;;;5010577;28;20404;-83
2022/06/02 02:54:58;;;;;;;9.80;6.90;;;;;;;;;;5009458;28;20535;-83
2022/06/02 02:57:43;;;;;;;10.13;8.02;;;;;;;;;;5001880;28;20027;-83
2022/06/02 03:00:23;;;;;;;9.77;7.55;;;;;;;;;;5006080;28;20038;-83
2022/06/02 03:02:57;;;;;;;8.85;7.65;;;;;;;;;;5009751;28;20019;-83
2022/06/02 03:05:28;;;;;;;9.65;7.32;;;;;;;;;;5010560;28;20057;-83
2022/06/02 03:08:00;;;;;;;9.18;7.75;;;;;;;;;;4994928;28;20037;-84
2022/06/02 03:10:26;;;;;;;9.67;7.30;;;;;;;;;;5010814;28;20566;-83
2022/06/02 03:13:11;;;;;;;9.00;6.43;;;;;;;;;;5010940;28;20053;-83
2022/06/02 03:15:37;;;;;;;7.43;5.50;;;;;;;;;;5011085;28;20030;-83
2022/06/02 03:18:24;;;;;;;7.43;5.35;;;;;;;;;;5010349;28;20026;-83
2022/06/02 03:21:02;;;;;;;7.15;5.57;;;;;;;;;;5010388;28;20038;-83
2022/06/02 03:23:47;;;;;;;7.30;5.75;;;;;;;;;;5011542;28;20473;-83
2022/06/02 03:26:26;;;;;;;7.57;5.78;;;;;;;;;;5009873;28;20030;-83
2022/06/02 03:29:05;;;;;;;8.45;6.43;;;;;;;;;;5009848;28;20050;-83
2022/06/02 03:31:52;;;;;;;8.43;6.63;;;;;;;;;;5010010;28;20113;-83
2022/06/02 03:34:29;;;;;;;8.60;6.13;;;;;;;;;;5009588;28;20455;-83
2022/06/02 03:37:01;;;;;;;7.97;6.22;;;;;;;;;;5009404;28;20486;-83
2022/06/02 03:39:39;;;;;;;8.35;6.43;;;;;;;;;;5026120;28;20022;-83
2022/06/02 03:42:05;;;;;;;9.68;6.78;;;;;;;;;;5000334;28;20045;-83
2022/06/02 03:44:47;;;;;;;7.90;6.30;;;;;;;;;;5010391;28;20031;-83
2022/06/02 03:47:35;;;;;;;8.48;6.15;;;;;;;;;;5009149;28;20034;-83
2022/06/02 03:50:20;;;;;;;8.77;6.70;;;;;;;;;;5009742;28;20050;-83
2022/06/02 03:52:52;;;;;;;9.50;6.82;;;;;;;;;;5010368;28;20057;-83
2022/06/02 03:55:18;;;;;;;8.55;6.47;;;;;;;;;;5024962;28;20046;-83
2022/06/02 03:57:55;;;;;;;9.93;7.70;;;;;;;;;;5001839;28;20027;-83
2022/06/02 04:00:21;;;;;;;10.18;7.60;;;;;;;;;;5006026;28;20082;-83
2022/06/02 04:02:54;;;;;;;9.15;7.22;;;;;;;;;;5010122;28;20385;-83
2022/06/02 04:05:30;;;;;;;9.88;8.02;;;;;;;;;;5008770;28;20119;-83
2022/06/02 04:08:15;;;;;;;9.80;7.70;;;;;;;;;;5013196;28;20077;-83
2022/06/02 04:10:56;;;;;;;10.05;7.55;;;;;;;;;;5012365;28;20571;-83
2022/06/02 04:13:40;;;;;;;9.63;7.85;;;;;;;;;;5014230;28;20519;-83
2022/06/02 04:16:06;;;;;;;10.55;7.75;;;;;;;;;;5012902;28;20026;-83
2022/06/02 04:18:55;;;;;;;10.77;8.38;;;;;;;;;;5013787;28;20030;-83
2022/06/02 04:21:37;;;;;;;9.23;7.18;;;;;;;;;;5014029;28;20086;-83
2022/06/02 04:24:29;;;;;;;10.57;7.97;;;;;;;;;;5014522;28;20038;-83
2022/06/02 04:27:01;;;;;;;10.85;8.15;;;;;;;;;;5017879;28;20086;-83
2022/06/02 04:29:27;;;;;;;;;;;;;;;;;;5016140;28;20061;-83
2022/06/02 04:31:56;;;;;;;9.85;7.90;;;;;;;;;;5014329;28;19973;-83
2022/06/02 04:34:41;;;;;;;9.68;7.47;;;;;;;;;;5013738;28;20049;-83
2022/06/02 04:37:27;;;;;;;9.65;7.40;;;;;;;;;;5013530;28;20042;-83
2022/06/02 04:39:56;;;;;;;11.25;8.68;;;;;;;;;;5012337;28;20069;-83
2022/06/02 04:43:01;;;;;;;11.25;8.98;;;;;;;;;;5013201;28;20065;-83
2022/06/02 04:45:49;;;;;;;12.45;9.13;;;;;;;;;;4971688;28;20041;-82
2022/06/02 04:48:27;;;;;;;10.38;8.52;;;;;;;;;;4972180;29;20035;-82
2022/06/02 04:51:16;;;;;;;10.80;8.45;;;;;;;;;;4996522;28;20090;-83
2022/06/02 04:54:02;;;;;;;11.18;8.68;;;;;;;;;;5011415;28;20042;-82
2022/06/02 04:56:36;;;;;;;9.68;8.10;;;;;;;;;;5011670;28;20415;-81
2022/06/02 04:59:10;;;;;;;10.45;8.18;;;;;;;;;;5010760;28;20543;-82
2022/06/02 05:01:55;;;;;;;14.35;9.15;;;;;;;;;;4991046;28;20018;-82
2022/06/02 05:04:39;;;;;;;10.20;8.07;;;;;;;;;;4991799;28;20058;-82
2022/06/02 05:07:05;;;;;;;9.98;7.78;;;;;;;;;;5009079;28;20038;-82
2022/06/02 05:09:35;;;;;;;12.55;9.18;;;;;;;;;;5011910;28;20034;-82
2022/06/02 05:12:08;;;;;;;15.52;9.77;;;;;;;;;;5011540;28;20078;-82
2022/06/02 05:14:36;;;;;;;11.60;9.18;;;;;;;;;;5010339;28;20027;-82
2022/06/02 05:17:15;;;;;;;11.48;8.48;;;;;;;;;;5009488;28;20030;-82
2022/06/02 05:19:50;;;;;;;11.30;8.73;;;;;;;;;;5005754;28;20035;-82
2022/06/02 05:22:35;;;;;;;11.85;9.23;;;;;;;;;;4991701;28;20412;-82
2022/06/02 05:25:20;;;;;;;10.30;8.50;;;;;;;;;;4993934;28;20045;-83
2022/06/02 05:28:05;;;;;;;9.73;7.90;;;;;;;;;;5009292;28;20062;-82
2022/06/02 05:30:34;;;;;;;10.90;8.98;;;;;;;;;;5009163;28;20079;-83
2022/06/02 05:33:19;;;;;;;12.00;8.35;;;;;;;;;;5008459;28;20052;-83
2022/06/02 05:35:57;;;;;;;9.73;7.90;;;;;;;;;;5022892;28;20041;-82
2022/06/02 05:38:27;;;;;;;9.20;7.35;;;;;;;;;;5008263;28;20026;-82
2022/06/02 05:40:59;;;;;;;9.98;7.35;;;;;;;;;;5007271;28;20035;-83
2022/06/02 05:43:28;;;;;;;10.75;7.72;;;;;;;;;;5008664;28;20054;-82
2022/06/02 05:46:09;;;;;;;8.00;6.32;;;;;;;;;;5005844;28;20034;-83
2022/06/02 05:49:08;;;;;;;8.65;6.38;;;;;;;;;;5007841;28;20417;-83
2022/06/02 05:51:46;;;;;;;9.95;6.47;;;;;;;;;;4981914;28;20067;-84
2022/06/02 05:54:39;;;;;;;7.60;6.45;;;;;;;;;;5003131;28;20026;-83
2022/06/02 05:57:08;;;;;;;7.50;5.47;;;;;;;;;;5022838;28;20030;-84
2022/06/02 05:59:41;;;;;;;8.82;5.90;;;;;;;;;;5002280;28;20030;-83
2022/06/02 06:02:21;;;;;;;7.28;5.25;;;;;;;;;;5001700;28;20038;-84
2022/06/02 06:05:06;;;;;;;9.60;5.38;;;;;;;;;;5005348;28;20030;-84
2022/06/02 06:07:32;;;;;;;6.93;4.93;;;;;;;;;;5004912;28;20030;-82
2022/06/02 06:09:58;;;;;;;7.28;5.38;;;;;;;;;;5000837;28;20026;-83
2022/06/02 06:12:39;;;;;;;7.47;5.13;;;;;;;;;;5001860;28;20522;-84
2022/06/02 06:15:17;;;;;;;8.68;4.65;;;;;;;;;;5002262;28;20030;-83
2022/06/02 06:17:59;;;;;;;7.00;4.60;;;;;;;;;;5019288;28;20030;-83
2022/06/02 06:20:44;;;;;;;6.40;4.53;;;;;;;;;;4999301;28;20018;-83
2022/06/02 06:23:16;;;;;;;6.88;4.38;;;;;;;;;;5016149;28;20353;-84
2022/06/02 06:25:51;;;;;;;7.55;4.25;;;;;;;;;;5002715;28;20030;-85
2022/06/02 06:28:18;;;;;;;7.85;4.63;;;;;;;;;;5003477;28;20034;-83
2022/06/02 06:30:44;;;;;;;6.35;4.63;;;;;;;;;;5001347;28;20215;-83
2022/06/02 06:33:22;;;;;;;7.38;4.53;;;;;;;;;;5002769;28;20108;-84
2022/06/02 06:36:06;;;;;;;8.18;4.90;;;;;;;;;;5003691;28;20030;-84
2022/06/02 06:38:48;;;;;;;6.43;4.60;;;;;;;;;;5002901;28;20041;-84
2022/06/02 06:41:37;;;;;;;6.70;4.10;;;;;;;;;;5004149;28;20037;-84
2022/06/02 06:44:03;;;;;;;7.15;5.07;;;;;;;;;;5003242;28;20112;-84
2022/06/02 06:46:39;;;;;;;6.28;4.20;;;;;;;;;;5003039;28;20129;-84
2022/06/02 06:49:14;;;;;;;6.13;4.70;;;;;;;;;;5022045;28;20030;-84
2022/06/02 06:51:59;;;;;;;7.47;4.32;;;;;;;;;;5005164;28;20396;-82
2022/06/02 06:54:44;;;;;;;8.07;4.65;;;;;;;;;;5017757;28;20084;-83
2022/06/02 06:57:20;;;;;;;7.00;4.05;;;;;;;;;;5007202;28;20042;-84
2022/06/02 07:00:01;;;;;;;6.07;4.60;;;;;;;;;;4987108;28;20034;-84
2022/06/02 07:02:45;;;;;;;6.57;4.15;;;;;;;;;;4988952;28;20039;-84
2022/06/02 07:05:26;;;;;;;7.63;4.32;;;;;;;;;;4994849;28;20059;-84
2022/06/02 07:08:11;;;;;;;6.65;4.85;;;;;;;;;;5007693;28;20124;-84
2022/06/02 07:10:53;;;;;;;6.05;4.57;;;;;;;;;;5007654;28;20022;-85
2022/06/02 07:13:30;;;;;;;6.90;5.15;;;;;;;;;;5005234;28;20050;-85
2022/06/02 07:16:08;;;;;;;6.38;4.60;;;;;;;;;;5006435;28;20499;-85
2022/06/02 07:18:59;;;;;;;6.90;4.70;;;;;;;;;;5005967;28;20026;-85
2022/06/02 07:21:37;;;;;;;6.65;5.22;;;;;;;;;;5013864;28;20074;-85
2022/06/02 07:24:06;;;;;;;7.50;5.32;;;;;;;;;;5006708;28;20046;-84
2022/06/02 07:26:38;;;;;;;6.97;4.63;;;;;;;;;;5006610;28;20089;-83
2022/06/02 07:29:20;;;;;;;7.00;5.15;;;;;;;;;;5008165;28;20119;-83
2022/06/02 07:32:04;;;;;;;7.35;5.32;;;;;;;;;;5005815;28;20034;-83
2022/06/02 07:34:41;;;;;;;6.60;4.80;;;;;;;;;;4981425;28;20027;-83
2022/06/02 07:37:13;;;;;;;7.57;4.60;;;;;;;;;;5001400;28;20034;-84
2022/06/02 07:39:42;;;;;;;6.85;4.80;;;;;;;;;;5007078;28;20006;-84
2022/06/02 07:42:27;;;;;;;6.90;4.93;;;;;;;;;;5008740;28;20022;-84
2022/06/02 07:44:56;;;;;;;7.65;4.90;;;;;;;;;;5010529;28;20085;-83
2022/06/02 07:47:42;;;;;;;8.93;5.07;;;;;;;;;;5007804;28;20026;-84
2022/06/02 07:50:25;;;;;;;7.07;4.50;;;;;;;;;;5002469;28;20039;-84
2022/06/02 07:53:00;;;;;;;6.63;4.55;;;;;;;;;;4987995;28;20343;-85
2022/06/02 07:55:38;;;;;;;6.50;4.35;;;;;;;;;;4994054;28;20053;-83
2022/06/02 07:58:20;;;;;;;6.07;4.10;;;;;;;;;;5000518;28;20085;-83
2022/06/02 08:00:56;;;;;;;6.18;4.10;;;;;;;;;;4988111;28;20023;-83
2022/06/02 08:03:28;;;;;;;5.60;4.38;;;;;;;;;;4986172;28;20061;-83
2022/06/02 08:06:12;;;;;;;5.80;4.03;;;;;;;;;;4999309;28;20030;-84
2022/06/02 08:08:43;;;;;;;5.60;4.22;;;;;;;;;;5005103;28;20068;-83
2022/06/02 08:11:28;;;;;;;6.68;3.85;;;;;;;;;;5019913;28;20092;-84
2022/06/02 08:13:59;;;;;;;5.93;3.90;;;;;;;;;;4999984;28;20117;-84
2022/06/02 08:16:25;;;;;;;7.80;4.07;;;;;;;;;;5001718;28;20033;-84
2022/06/02 08:18:58;;;;;;;5.72;3.80;;;;;;;;;;5002265;28;20392;-85
2022/06/02 08:21:27;;;;;;;6.80;3.55;;;;;;;;;;5000778;28;20058;-84
2022/06/02 08:24:11;;;;;;;6.03;3.60;;;;;;;;;;4982799;28;20433;-84
2022/06/02 08:26:56;;;;;;;6.70;3.72;;;;;;;;;;4999966;28;20031;-84
2022/06/02 08:29:28;;;;;;;5.60;3.30;;;;;;;;;;5016613;28;20323;-84
2022/06/02 08:31:57;;;;;;;4.70;3.17;;;;;;;;;;5002393;28;20022;-84
2022/06/02 08:34:42;;;;;;;6.78;3.53;;;;;;;;;;4999413;28;20743;-84
2022/06/02 08:37:11;;;;;;;5.82;3.67;;;;;;;;;;4997382;28;20097;-83
2022/06/02 08:39:42;;;;;;;4.63;2.80;;;;;;;;;;4999574;28;20121;-84
2022/06/02 08:42:34;;;;;;;4.50;3.00;;;;;;;;;;4985731;28;20240;-84
2022/06/02 08:45:06;;;;;;;5.90;2.88;;;;;;;;;;4984682;28;20117;-85
2022/06/02 08:47:32;;;;;;;5.60;3.38;;;;;;;;;;4998866;28;20022;-85
2022/06/02 08:49:58;;;;;;;5.18;3.47;;;;;;;;;;4999729;28;20084;-84
2022/06/02 08:52:30;;;;;;;4.63;2.90;;;;;;;;;;4998109;28;20122;-84
2022/06/02 08:55:08;;;;;;;5.47;3.35;;;;;;;;;;4997670;28;20544;-85
2022/06/02 08:57:53;;;;;;;6.18;3.30;;;;;;;;;;4996575;28;20042;-84
2022/06/02 09:00:22;;;;;;;5.63;3.50;;;;;;;;;;4999377;28;20411;-84
2022/06/02 09:02:50;;;;;;;6.05;3.63;;;;;;;;;;4999828;28;20093;-84
2022/06/02 09:05:25;;;;;;;20.63;19.00;;;;;;;;;;4998387;28;20472;-84
2022/06/02 09:08:09;;;;;;;5.05;3.45;;;;;;;;;;4998634;28;20114;-83
2022/06/02 09:10:35;;;;;;;5.55;3.53;;;;;;;;;;4998709;28;20033;-83
2022/06/02 09:13:16;;;;;;;5.53;3.67;;;;;;;;;;4999011;28;20496;-83
2022/06/02 09:16:01;;;;;;;6.35;3.75;;;;;;;;;;4996945;28;20041;-84
2022/06/02 09:18:46;;;;;;;4.93;3.55;;;;;;;;;;4998099;28;20027;-83
2022/06/02 09:21:35;;;;;;;4.45;2.80;;;;;;;;;;4998849;28;20530;-83
2022/06/02 09:24:20;;;;;;;5.78;3.35;;;;;;;;;;4996137;28;20050;-83
2022/06/02 09:26:46;;;;;;;6.20;3.40;;;;;;;;;;4996543;28;20521;-84
2022/06/02 09:29:22;;;;;;;4.93;3.35;;;;;;;;;;4997646;28;20110;-83
2022/06/02 09:32:03;;;;;;;6.78;3.42;;;;;;;;;;4998620;28;20027;-84
2022/06/02 09:34:41;;;;;;;5.65;3.40;;;;;;;;;;4997356;28;20555;-84
2022/06/02 09:37:26;;;;;;;5.03;3.30;;;;;;;;;;4998439;28;20023;-84
2022/06/02 09:39:55;;;;;;;5.70;3.20;;;;;;;;;;4996773;28;20489;-84
2022/06/02 09:42:34;;;;;;;5.43;3.85;;;;;;;;;;4996607;28;20030;-84
2022/06/02 09:45:12;;;;;;;5.50;3.42;;;;;;;;;;5013863;28;20050;-84
2022/06/02 09:47:42;;;;;;;4.82;3.22;;;;;;;;;;4997696;28;20484;-84
2022/06/02 09:50:19;;;;;;;6.97;3.42;;;;;;;;;;4998775;28;20403;-84
2022/06/02 09:52:53;;;;;;;6.00;3.28;;;;;;;;;;4997020;28;20182;-83
2022/06/02 09:55:28;;;;;;;5.68;3.38;;;;;;;;;;4997719;28;20050;-84
2022/06/02 09:58:09;;;;;;;5.30;3.20;;;;;;;;;;4992691;28;20121;-83
2022/06/02 10:00:38;;;;;;;5.20;3.53;;;;;;;;;;4998171;28;20026;-83
2022/06/02 10:03:23;;;;;;;5.93;3.38;;;;;;;;;;4996760;28;20036;-84
2022/06/02 10:05:49;;;;;;;5.95;3.70;;;;;;;;;;4997113;28;20391;-84
2022/06/02 10:08:26;;;;;;;6.93;3.65;;;;;;;;;;4997100;28;20022;-84
2022/06/02 10:10:55;;;;;;;6.78;3.42;;;;;;;;;;4997439;28;20077;-84
2022/06/02 10:13:31;;;;;;;5.40;3.40;;;;;;;;;;4996322;28;20218;-84
2022/06/02 10:16:23;;;;;;;4.97;3.33;;;;;;;;;;4998061;28;20026;-84
2022/06/02 10:19:01;;;;;;;4.55;3.20;;;;;;;;;;4992587;28;20061;-84
2022/06/02 10:21:46;;;;;;;6.72;3.33;;;;;;;;;;4976075;28;20035;-84
2022/06/02 10:24:15;;;;;;;6.55;3.45;;;;;;;;;;4976275;28;20034;-84
2022/06/02 10:26:56;;;;;;;5.20;3.45;;;;;;;;;;4995870;28;20027;-84
2022/06/02 10:29:25;;;;;;;5.35;3.40;;;;;;;;;;4993792;28;20034;-84
2022/06/02 10:32:09;;;;;;;4.80;3.45;;;;;;;;;;4995130;28;20064;-84
2022/06/02 10:34:54;;;;;;;5.45;3.30;;;;;;;;;;4987564;28;20018;-84
2022/06/02 10:37:20;;;;;;;5.78;3.08;;;;;;;;;;4975941;28;20043;-84
2022/06/02 10:39:52;;;;;;;5.00;3.47;;;;;;;;;;4993552;28;20034;-84
2022/06/02 10:42:39;;;;;;;5.97;3.63;;;;;;;;;;4995807;28;20030;-84
2022/06/02 10:45:08;;;;;;;5.53;3.30;;;;;;;;;;4986232;28;20501;-84
2022/06/02 10:47:43;;;;;;;7.63;3.70;;;;;;;;;;4975618;28;20037;-84
2022/06/02 10:50:18;;;;;;;4.60;3.33;;;;;;;;;;4974248;28;20047;-84
2022/06/02 10:52:50;;;;;;;5.35;3.45;;;;;;;;;;4975457;28;20041;-85
2022/06/02 10:55:16;;;;;;;7.10;4.20;;;;;;;;;;4975993;28;20102;-85
2022/06/02 10:57:42;;;;;;;4.53;3.72;;;;;;;;;;4992471;28;20038;-84
2022/06/02 11:00:11;;;;;;;4.95;3.50;;;;;;;;;;4994413;28;20261;-85
2022/06/02 11:02:49;;;;;;;5.03;3.47;;;;;;;;;;4996140;28;20042;-84
2022/06/02 11:05:47;;;;;;;4.80;3.40;;;;;;;;;;4995497;28;20041;-85
2022/06/02 11:08:38;;;;;;;5.35;3.63;;;;;;;;;;4983882;28;20038;-85
2022/06/02 11:11:33;;;;;;;6.53;3.78;;;;;;;;;;4995502;28;20026;-85
2022/06/02 11:14:18;;;;;;;4.65;3.30;;;;;;;;;;4987234;28;20039;-84
2022/06/02 11:17:05;;;;;;;6.15;3.75;;;;;;;;;;4988827;28;20109;-84
2022/06/02 11:19:34;;;;;;;5.63;3.53;;;;;;;;;;4999018;28;20026;-84
2022/06/02 11:22:18;;;;;;;5.70;3.72;;;;;;;;;;5000570;28;20058;-85
2022/06/02 11:25:12;;;;;;;5.03;3.33;;;;;;;;;;4999758;28;20064;-83
2022/06/02 11:27:57;;;;;;;5.25;3.58;;;;;;;;;;4998939;28;20404;-84
2022/06/02 11:30:32;;;;;;;5.55;3.67;;;;;;;;;;5000489;28;20034;-84
2022/06/02 11:32:58;;;;;;;4.93;3.20;;;;;;;;;;5000574;28;20338;-84
2022/06/02 11:35:30;;;;;;;5.38;3.90;;;;;;;;;;5001475;28;20034;-85
2022/06/02 11:38:05;;;;;;;5.32;3.38;;;;;;;;;;4999655;28;20100;-84
2022/06/02 11:40:43;;;;;;;6.30;3.22;;;;;;;;;;4989457;28;20484;-84
2022/06/02 11:43:14;;;;;;;4.90;3.75;;;;;;;;;;5000339;28;20040;-84
2022/06/02 11:45:49;;;;;;;5.65;3.70;;;;;;;;;;5000442;28;20030;-83
2022/06/02 11:48:34;;;;;;;5.00;3.50;;;;;;;;;;4998392;28;20109;-84
2022/06/02 11:51:00;;;;;;;5.35;3.70;;;;;;;;;;4999519;28;20021;-84
2022/06/02 11:53:26;;;;;;;5.15;3.38;;;;;;;;;;4999723;28;20027;-85
2022/06/02 11:56:11;;;;;;;6.43;3.50;;;;;;;;;;4998718;28;20100;-84
2022/06/02 11:58:52;;;;;;;5.18;2.80;;;;;;;;;;4999334;28;20062;-83
2022/06/02 12:01:39;;;;;;;4.75;3.15;;;;;;;;;;5000062;28;20044;-84
2022/06/02 12:04:06;;;;;;;4.95;3.40;;;;;;;;;;5000170;28;20121;-84
2022/06/02 12:06:41;;;;;;;4.40;2.95;;;;;;;;;;4999442;28;20030;-84
2022/06/02 12:09:30;;;;;;;5.28;2.90;;;;;;;;;;4995626;28;20034;-84
2022/06/02 12:12:02;;;;;;;5.80;3.63;;;;;;;;;;4999787;28;20062;-84
2022/06/02 12:14:34;;;;;;;5.22;3.92;;;;;;;;;;5001173;28;20038;-84
2022/06/02 12:17:00;;;;;;;6.38;4.00;;;;;;;;;;4998855;28;20053;-84
2022/06/02 12:19:33;;;;;;;5.25;3.65;;;;;;;;;;4998206;28;20030;-84
2022/06/02 12:22:18;;;;;;;6.50;3.30;;;;;;;;;;5000882;28;20030;-84
2022/06/02 12:24:58;;;;;;;4.82;3.28;;;;;;;;;;4999278;28;20431;-84
2022/06/02 12:27:24;;;;;;;5.13;3.15;;;;;;;;;;5016465;28;20032;-84
2022/06/02 12:30:02;;;;;;;4.68;3.08;;;;;;;;;;4999221;28;20062;-85
2022/06/02 12:32:42;;;;;;;5.38;3.20;;;;;;;;;;4998493;28;20133;-84
2022/06/02 12:35:28;;;;;;;4.50;3.03;;;;;;;;;;5000120;28;20044;-84
2022/06/02 12:38:00;;;;;;;5.53;2.97;;;;;;;;;;5014570;28;20030;-85
2022/06/02 12:40:33;;;;;;;4.80;2.90;;;;;;;;;;5000085;28;20099;-84
2022/06/02 12:42:59;;;;;;;4.97;3.17;;;;;;;;;;4998050;28;20034;-84
2022/06/02 12:45:44;;;;;;;5.47;3.30;;;;;;;;;;4997305;28;20385;-84
2022/06/02 12:48:28;;;;;;;4.57;3.33;;;;;;;;;;4998947;28;20118;-85
2022/06/02 12:51:17;;;;;;;6.03;3.20;;;;;;;;;;4999481;28;20129;-83
2022/06/02 12:54:00;;;;;;;5.13;2.88;;;;;;;;;;4998525;28;20036;-84
2022/06/02 12:56:28;;;;;;;;;;;;;;;;;;4998842;28;20051;-83
2022/06/02 12:58:57;;;;;;;4.88;3.00;;;;;;;;;;4999794;28;19953;-84
2022/06/02 13:01:38;;;;;;;5.10;3.05;;;;;;;;;;5012586;28;20026;-84
2022/06/02 13:04:23;;;;;;;4.70;3.45;;;;;;;;;;4997845;28;20030;-83
2022/06/02 13:06:57;;;;;;;5.00;3.30;;;;;;;;;;4997705;28;20109;-83
2022/06/02 13:09:42;;;;;;;4.60;3.35;;;;;;;;;;4999232;28;20026;-84
2022/06/02 13:12:27;;;;;;;5.43;3.35;;;;;;;;;;4997386;28;20022;-84
2022/06/02 13:15:07;;;;;;;5.72;3.35;;;;;;;;;;4999260;28;20061;-85
2022/06/02 13:17:51;;;;;;;5.00;3.53;;;;;;;;;;4997381;28;20405;-85
2022/06/02 13:20:23;;;;;;;5.45;3.80;;;;;;;;;;4997132;28;20073;-84
2022/06/02 13:22:49;;;;;;;5.95;3.78;;;;;;;;;;4998928;28;20023;-84
2022/06/02 13:25:15;;;;;;;6.55;3.50;;;;;;;;;;4997964;28;20027;-83
2022/06/02 13:28:00;;;;;;;5.80;3.10;;;;;;;;;;4998131;28;20026;-84
2022/06/02 13:30:29;;;;;;;6.22;3.00;;;;;;;;;;4998960;28;20026;-85
2022/06/02 13:32:58;;;;;;;6.15;2.95;;;;;;;;;;4981123;28;20046;-84
2022/06/02 13:35:42;;;;;;;5.38;3.50;;;;;;;;;;4979950;28;20034;-84
2022/06/02 13:38:27;;;;;;;5.20;3.28;;;;;;;;;;4997122;28;20090;-84
2022/06/02 13:40:56;;;;;;;4.55;3.05;;;;;;;;;;4997806;28;20098;-82
2022/06/02 13:43:28;;;;;;;5.13;2.90;;;;;;;;;;4999925;28;20041;-84
2022/06/02 13:46:03;;;;;;;4.97;3.30;;;;;;;;;;5000397;28;20027;-84
2022/06/02 13:48:41;;;;;;;5.53;3.35;;;;;;;;;;5011033;28;20504;-84
2022/06/02 13:51:23;;;;;;;6.05;3.03;;;;;;;;;;4993032;28;20370;-84
2022/06/02 13:59:56;;;;;;;4.70;2.88;;;;;;;;;;4998215;28;20037;-84
2022/06/02 14:02:34;;;;;;;4.80;3.00;;;;;;;;;;4999895;28;20113;-83
2022/06/02 14:05:00;;;;;;;4.75;2.88;;;;;;;;;;4999173;28;20054;-84
2022/06/02 14:07:45;;;;;;;5.32;3.22;;;;;;;;;;4997903;28;20037;-84
2022/06/02 14:10:30;;;;;;;6.53;3.30;;;;;;;;;;4997625;28;20031;-84
2022/06/02 14:12:59;;;;;;;4.60;3.20;;;;;;;;;;4997749;28;20037;-84
2022/06/02 14:15:34;;;;;;;4.22;2.60;;;;;;;;;;4999795;28;20045;-84
2022/06/02 14:18:00;;;;;;;7.00;3.17;;;;;;;;;;4999275;28;20022;-84
2022/06/02 14:20:29;;;;;;;4.50;2.88;;;;;;;;;;4998013;28;20090;-84
2022/06/02 14:23:01;;;;;;;4.63;3.05;;;;;;;;;;4998654;28;20034;-83
2022/06/02 14:25:42;;;;;;;4.15;2.88;;;;;;;;;;4998955;28;20018;-82
2022/06/02 14:28:21;;;;;;;5.13;2.90;;;;;;;;;;4999574;28;20029;-83
2022/06/02 14:30:47;;;;;;;4.32;3.00;;;;;;;;;;5015970;28;20125;-84
2022/06/02 14:33:22;;;;;;;4.40;3.08;;;;;;;;;;4999085;28;20061;-84
2022/06/02 14:36:04;;;;;;;4.78;2.95;;;;;;;;;;4994235;28;20552;-83
2022/06/02 14:38:48;;;;;;;4.60;3.00;;;;;;;;;;4980155;28;20099;-83
2022/06/02 14:41:14;;;;;;;5.38;3.30;;;;;;;;;;5000146;28;20022;-83
2022/06/02 14:43:46;;;;;;;4.70;2.92;;;;;;;;;;4998132;28;20499;-84
2022/06/02 14:46:25;;;;;;;5.03;3.20;;;;;;;;;;4998274;28;20111;-84
2022/06/02 14:49:10;;;;;;;4.80;2.92;;;;;;;;;;4997206;28;20019;-84
2022/06/02 14:51:38;;;;;;;4.63;2.88;;;;;;;;;;4999637;28;20566;-84
2022/06/02 14:54:23;;;;;;;4.57;2.92;;;;;;;;;;4997051;28;20516;-84
2022/06/02 14:57:09;;;;;;;5.15;2.70;;;;;;;;;;5000295;28;20038;-83
2022/06/02 14:59:54;;;;;;;4.18;2.80;;;;;;;;;;4998906;28;20041;-83
2022/06/02 15:02:20;;;;;;;4.57;3.13;;;;;;;;;;4998885;28;20037;-84
2022/06/02 15:04:51;;;;;;;6.75;3.22;;;;;;;;;;4999041;28;20026;-84
2022/06/02 15:07:36;;;;;;;4.95;3.08;;;;;;;;;;4997495;28;20096;-84
2022/06/02 15:10:10;;;;;;;5.40;3.22;;;;;;;;;;4980197;28;20408;-84
2022/06/02 15:12:48;;;;;;;4.05;2.95;;;;;;;;;;4983631;28;20032;-84
2022/06/02 15:15:17;;;;;;;5.78;3.10;;;;;;;;;;4997535;28;20034;-83
2022/06/02 15:18:05;;;;;;;5.68;3.08;;;;;;;;;;4998700;28;20081;-84
2022/06/02 15:20:34;;;;;;;4.63;3.08;;;;;;;;;;4998657;28;20061;-83
2022/06/02 15:23:03;;;;;;;5.88;2.90;;;;;;;;;;4997439;28;20389;-83
2022/06/02 15:25:35;;;;;;;4.18;2.85;;;;;;;;;;4989650;28;20058;-84
2022/06/02 15:28:02;;;;;;;6.32;3.00;;;;;;;;;;4995295;28;20109;-84
2022/06/02 15:30:31;;;;;;;4.35;2.60;;;;;;;;;;4984454;28;20082;-84
2022/06/02 15:33:03;;;;;;;4.90;2.92;;;;;;;;;;4997948;28;20038;-83
2022/06/02 15:35:29;;;;;;;4.78;3.00;;;;;;;;;;4997688;28;20034;-83
2022/06/02 15:38:01;;;;;;;4.75;3.10;;;;;;;;;;4997182;28;20045;-83
2022/06/02 15:40:27;;;;;;;4.43;3.20;;;;;;;;;;4986595;28;20034;-83
2022/06/02 15:43:15;;;;;;;4.30;2.70;;;;;;;;;;4994326;28;20030;-83
2022/06/02 15:46:06;;;;;;;5.68;2.90;;;;;;;;;;4992897;28;20027;-83
2022/06/02 15:48:43;;;;;;;4.00;2.70;;;;;;;;;;4990497;28;20042;-81